PWSweather.com
Personal Weather Stations
Station Observations
IACHARNE2
Acharnes, AthensGR

AcharnesAthensGR

Lat: 38.097318, Lon: 23.732

Elevation: 640

Station Type: ProWeatherStation

http://www.meteoacharnes.gr

Latest ConditionsUpdated 2:40:03 AM GMT+02:02 Thursday, Aug 16, 2018
Currently Today's Max Today's Min Today's Average
Temperature 73.9°F23.3°C 75.9°F24.4°C 73.6°F23.1°C 74.8°F23.8°C
Dew Point 56.8°F13.8°C 57.3°F14.1°C 51.5°F10.8°C 54.5°F12.5°C
Winds 0.9 mph NNW1.4 kmh NNW 2.0 mph -3.2 kmh - - 0.8 mph 1.3 kmh
Wind Gusts 3.8 mph6.1 kmh 6.0 mph9.7 kmh - -
Humidity 55% 55% 43% 49%
Pressure 29.87 in1011.5 mb 29.89 in1012.2 mb 29.87 in1011.5 mb -
Hour Temp Dew Point Humidity Winds Wind Gusts Pressure Precip Precip Rate Daily Precip Total
02:40 AM 73.9°F23.3°C 56.8°F13.8°C 55% 0.9 mph NNW1.4 kmh NNW 3.8 mph6.1 kmh 29.87 in1011.5 mb 0.00 in0.0 mm 0.00 in0.0 mm 0.00 in0.0 mm
02:35 AM 74.5°F23.6°C 57.3°F14.1°C 55% 1.1 mph NNW1.8 kmh NNW 3.1 mph5.0 kmh 29.88 in1011.9 mb 0.00 in0.0 mm 0.00 in0.0 mm 0.00 in0.0 mm
02:30 AM 73.6°F23.1°C 55.9°F13.3°C 54% 0.7 mph NW1.1 kmh NW 3.1 mph5.0 kmh 29.88 in1011.9 mb 0.00 in0.0 mm 0.00 in0.0 mm 0.00 in0.0 mm
02:25 AM 74.5°F23.6°C 56.3°F13.5°C 53% 0.3 mph NW0.5 kmh NW 2.2 mph3.5 kmh 29.88 in1011.9 mb 0.00 in0.0 mm 0.00 in0.0 mm 0.00 in0.0 mm
02:20 AM 74.7°F23.7°C 55.9°F13.3°C 52% 1.0 mph N1.6 kmh N 3.8 mph6.1 kmh 29.88 in1011.9 mb 0.00 in0.0 mm 0.00 in0.0 mm 0.00 in0.0 mm
02:15 AM 74.5°F23.6°C 55.2°F12.9°C 51% 1.1 mph N1.8 kmh N 3.8 mph6.1 kmh 29.88 in1011.9 mb 0.00 in0.0 mm 0.00 in0.0 mm 0.00 in0.0 mm
02:10 AM 74.3°F23.5°C 56.1°F13.4°C 53% 0.8 mph N1.3 kmh N 3.8 mph6.1 kmh 29.88 in1011.9 mb 0.00 in0.0 mm 0.00 in0.0 mm 0.00 in0.0 mm
02:05 AM 74.3°F23.5°C 56.1°F13.4°C 53% 0.8 mph NNE1.3 kmh NNE 3.8 mph6.1 kmh 29.87 in1011.5 mb 0.00 in0.0 mm 0.00 in0.0 mm 0.00 in0.0 mm
02:00 AM 74.3°F23.5°C 56.1°F13.4°C 53% 0.9 mph NNE1.4 kmh NNE 3.8 mph6.1 kmh 29.88 in1011.9 mb 0.00 in0.0 mm 0.00 in0.0 mm 0.00 in0.0 mm
01:55 AM 73.9°F23.3°C 55.8°F13.2°C 53% 1.0 mph NE1.6 kmh NE 3.8 mph6.1 kmh 29.87 in1011.5 mb 0.00 in0.0 mm 0.00 in0.0 mm 0.00 in0.0 mm
01:50 AM 74.3°F23.5°C 56.1°F13.4°C 53% 0.8 mph NE1.3 kmh NE 3.1 mph5.0 kmh 29.88 in1011.9 mb 0.00 in0.0 mm 0.00 in0.0 mm 0.00 in0.0 mm
01:45 AM 74.5°F23.6°C 55.7°F13.2°C 52% 0.6 mph NE1.0 kmh NE 2.2 mph3.5 kmh 29.88 in1011.9 mb 0.00 in0.0 mm 0.00 in0.0 mm 0.00 in0.0 mm
01:40 AM 74.1°F23.4°C 55.4°F13.0°C 52% 0.9 mph NE1.4 kmh NE 2.2 mph3.5 kmh 29.87 in1011.5 mb 0.00 in0.0 mm 0.00 in0.0 mm 0.00 in0.0 mm
01:35 AM 74.7°F23.7°C 55.4°F13.0°C 51% 0.7 mph NE1.1 kmh NE 2.2 mph3.5 kmh 29.87 in1011.5 mb 0.00 in0.0 mm 0.00 in0.0 mm 0.00 in0.0 mm
01:30 AM 74.8°F23.8°C 55.5°F13.1°C 51% 0.3 mph NNE0.5 kmh NNE 2.2 mph3.5 kmh 29.88 in1011.9 mb 0.00 in0.0 mm 0.00 in0.0 mm 0.00 in0.0 mm
01:25 AM 74.7°F23.7°C 54.8°F12.7°C 50% 0.2 mph NNE0.3 kmh NNE 2.2 mph3.5 kmh 29.88 in1011.9 mb 0.00 in0.0 mm 0.00 in0.0 mm 0.00 in0.0 mm
01:20 AM 75.6°F24.2°C 55.6°F13.1°C 50% 0.1 mph N0.2 kmh N 2.2 mph3.5 kmh 29.88 in1011.9 mb 0.00 in0.0 mm 0.00 in0.0 mm 0.00 in0.0 mm
01:15 AM 75.0°F23.9°C 54.6°F12.6°C 49% 0.3 mph NNW0.5 kmh NNW 2.2 mph3.5 kmh 29.88 in1011.9 mb 0.00 in0.0 mm 0.00 in0.0 mm 0.00 in0.0 mm
01:10 AM 75.2°F24.0°C 54.8°F12.7°C 49% 0.8 mph E1.3 kmh E 4.5 mph7.2 kmh 29.88 in1011.9 mb 0.00 in0.0 mm 0.00 in0.0 mm 0.00 in0.0 mm
01:05 AM 75.0°F23.9°C 54.6°F12.6°C 49% 0.8 mph NE1.3 kmh NE 4.5 mph7.2 kmh 29.88 in1011.9 mb 0.00 in0.0 mm 0.00 in0.0 mm 0.00 in0.0 mm
01:00 AM 74.8°F23.8°C 53.9°F12.2°C 48% 1.3 mph N2.1 kmh N 6.0 mph9.7 kmh 29.88 in1011.9 mb 0.00 in0.0 mm 0.00 in0.0 mm 0.00 in0.0 mm
12:55 AM 75.0°F23.9°C 54.0°F12.2°C 48% 2.0 mph NNW3.2 kmh NNW 6.0 mph9.7 kmh 29.88 in1011.9 mb 0.00 in0.0 mm 0.00 in0.0 mm 0.00 in0.0 mm
12:50 AM 74.8°F23.8°C 53.3°F11.8°C 47% 1.5 mph NW2.4 kmh NW 6.0 mph9.7 kmh 29.88 in1011.9 mb 0.00 in0.0 mm 0.00 in0.0 mm 0.00 in0.0 mm
12:45 AM 74.8°F23.8°C 53.3°F11.8°C 47% 0.8 mph NW1.3 kmh NW 3.1 mph5.0 kmh 29.88 in1011.9 mb 0.00 in0.0 mm 0.00 in0.0 mm 0.00 in0.0 mm
12:40 AM 75.0°F23.9°C 52.9°F11.6°C 46% 0.4 mph N0.6 kmh N 2.2 mph3.5 kmh 29.89 in1012.2 mb 0.00 in0.0 mm 0.00 in0.0 mm 0.00 in0.0 mm
12:35 AM 75.0°F23.9°C 52.3°F11.3°C 45% 0.3 mph NNE0.5 kmh NNE 2.2 mph3.5 kmh 29.89 in1012.2 mb 0.00 in0.0 mm 0.00 in0.0 mm 0.00 in0.0 mm
12:30 AM 75.2°F24.0°C 52.4°F11.3°C 45% 0.5 mph N0.8 kmh N 2.2 mph3.5 kmh 29.89 in1012.2 mb 0.00 in0.0 mm 0.00 in0.0 mm 0.00 in0.0 mm
12:25 AM 75.0°F23.9°C 51.7°F10.9°C 44% 0.8 mph N1.3 kmh N 3.8 mph6.1 kmh 29.89 in1012.2 mb 0.00 in0.0 mm 0.00 in0.0 mm 0.00 in0.0 mm
12:20 AM 75.4°F24.1°C 52.6°F11.4°C 45% 1.3 mph NE2.1 kmh NE 3.8 mph6.1 kmh 29.89 in1012.2 mb 0.00 in0.0 mm 0.00 in0.0 mm 0.00 in0.0 mm
12:15 AM 75.9°F24.4°C 53.1°F11.7°C 45% 1.5 mph ENE2.4 kmh ENE 3.8 mph6.1 kmh 29.88 in1011.9 mb 0.00 in0.0 mm 0.00 in0.0 mm 0.00 in0.0 mm
12:10 AM 75.7°F24.3°C 52.9°F11.6°C 45% 1.2 mph E1.9 kmh E 3.8 mph6.1 kmh 29.88 in1011.9 mb 0.00 in0.0 mm 0.00 in0.0 mm 0.00 in0.0 mm
12:05 AM 75.7°F24.3°C 51.7°F10.9°C 43% 0.6 mph ENE1.0 kmh ENE 3.8 mph6.1 kmh 29.89 in1012.2 mb 0.00 in0.0 mm 0.00 in0.0 mm 0.00 in0.0 mm
12:00 AM 75.6°F24.2°C 51.5°F10.8°C 43% 0.4 mph NNW0.6 kmh NNW 3.1 mph5.0 kmh 29.89 in1012.2 mb 0.00 in0.0 mm 0.00 in0.0 mm 0.00 in0.0 mm